Time;durP1;ratioP1;P1;durP2;ratioP2;P2;SDS_P1;SDS_P2;PMS_P1;PMS_P2;Temp;Humidity;BMP_temperature;BMP_pressure;BME280_temperature;BME280_humidity;BME280_pressure;Samples;Min_cycle;Max_cycle;Signal;HPM_P1;HPM_P2
2022/08/06 00:03:50;;;;;;;6.45;1.70;;;;;;;15.28;55.21;100643.38;10337759;28;19926;-81
2022/08/06 00:08:52;;;;;;;4.65;1.75;;;;;;;15.14;55.84;100640.84;10339664;28;20065;-81
2022/08/06 00:13:56;;;;;;;3.25;1.80;;;;;;;15.03;56.33;100641.53;10354652;28;20089;-81
2022/08/06 00:18:59;;;;;;;3.63;1.60;;;;;;;15.16;55.88;100641.56;10347229;28;20449;-81
2022/08/06 00:24:04;;;;;;;5.10;2.00;;;;;;;15.04;55.87;100642.41;10342296;28;20057;-80
2022/08/06 00:29:13;;;;;;;5.65;1.98;;;;;;;14.98;56.44;100653.34;10342226;28;20804;-81
2022/08/06 00:34:26;;;;;;;4.45;1.92;;;;;;;14.97;56.47;100655.13;10339064;28;20161;-81
2022/08/06 00:39:28;;;;;;;2.53;1.50;;;;;;;14.97;56.71;100657.75;10337732;28;20046;-81
2022/08/06 00:44:30;;;;;;;6.07;1.80;;;;;;;15.02;56.54;100660.09;10348097;28;20388;-81
2022/08/06 00:49:32;;;;;;;4.47;1.67;;;;;;;15.11;56.42;100665.59;10335197;28;20109;-81
2022/08/06 00:54:51;;;;;;;3.85;1.70;;;;;;;15.04;56.22;100666.09;10332916;28;20427;-81
2022/08/06 00:59:52;;;;;;;3.47;1.92;;;;;;;15.01;56.46;100682.94;10332816;28;20058;-81
2022/08/06 01:04:54;;;;;;;6.05;2.10;;;;;;;14.79;57.29;100689.72;10349656;28;20116;-81
2022/08/06 01:10:16;;;;;;;4.88;2.03;;;;;;;14.59;57.51;100697.09;10346439;28;20152;-81
2022/08/06 01:15:19;;;;;;;4.97;2.00;;;;;;;14.44;57.42;100705.13;10332082;28;20137;-81
2022/08/06 01:21:03;;;;;;;5.13;1.88;;;;;;;14.27;58.21;100713.22;10347381;28;20161;-81
2022/08/06 01:26:39;;;;;;;3.45;1.70;;;;;;;14.02;58.65;100718.31;10346023;28;20042;-81
2022/08/06 01:31:54;;;;;;;3.65;1.63;;;;;;;14.16;58.46;100720.94;10332976;28;20050;-80
2022/08/06 01:37:11;;;;;;;3.03;1.73;;;;;;;14.16;58.26;100721.81;10333384;28;20054;-81
2022/08/06 01:42:16;;;;;;;5.32;1.88;;;;;;;14.14;58.01;100728.09;10330781;28;20064;-80
2022/08/06 01:47:39;;;;;;;3.10;1.60;;;;;;;14.19;58.23;100726.00;10331118;28;20056;-81
2022/08/06 01:52:57;;;;;;;5.70;1.90;;;;;;;14.11;58.20;100746.69;10332099;28;20054;-81
2022/08/06 01:58:04;;;;;;;4.65;1.88;;;;;;;14.01;58.47;100748.19;10345998;28;20049;-80
2022/08/06 02:03:33;;;;;;;4.35;1.75;;;;;;;13.94;58.82;100747.72;10344495;28;20172;-80
2022/08/06 02:08:52;;;;;;;6.78;2.10;;;;;;;13.87;58.64;100756.91;10335333;28;20571;-80
2022/08/06 02:13:57;;;;;;;4.00;1.75;;;;;;;13.81;58.60;100756.44;10352457;28;20049;-75
2022/08/06 02:19:01;;;;;;;4.82;1.75;;;;;;;13.76;58.81;100765.44;10338522;28;20054;-75
2022/08/06 02:24:11;;;;;;;4.15;1.80;;;;;;;13.72;58.33;100763.09;10339052;28;20062;-75
2022/08/06 02:29:17;;;;;;;3.53;2.00;;;;;;;13.57;58.58;100779.78;10359181;28;20049;-76
2022/08/06 02:34:20;;;;;;;4.07;1.95;;;;;;;13.54;58.80;100779.94;10344869;28;20046;-75
2022/08/06 02:39:55;;;;;;;3.20;1.80;;;;;;;13.45;59.41;100785.75;10343309;28;20872;-75
2022/08/06 02:45:08;;;;;;;2.83;1.80;;;;;;;13.38;59.14;100787.84;10336087;28;20128;-75
2022/08/06 02:50:14;;;;;;;4.30;1.70;;;;;;;13.42;59.03;100786.75;10345916;28;20155;-75
2022/08/06 02:55:23;;;;;;;5.45;1.90;;;;;;;13.40;59.11;100785.97;10337977;28;20054;-75
2022/08/06 03:00:38;;;;;;;5.40;1.92;;;;;;;13.33;59.23;100787.25;10340205;28;20100;-75
2022/08/06 03:05:52;;;;;;;8.00;2.40;;;;;;;13.21;59.25;100790.59;10339643;28;20539;-75
2022/08/06 03:10:58;;;;;;;3.97;2.03;;;;;;;13.23;59.42;100796.59;10335852;28;20058;-75
2022/08/06 03:16:01;;;;;;;4.78;1.83;;;;;;;13.29;59.10;100805.94;10338128;28;20054;-75
2022/08/06 03:21:03;;;;;;;3.65;2.00;;;;;;;13.26;58.88;100811.34;10337989;28;20054;-75
2022/08/06 03:26:10;;;;;;;4.32;1.85;;;;;;;13.22;59.06;100809.81;10339334;28;20108;-75
2022/08/06 03:31:12;;;;;;;3.80;1.80;;;;;;;13.19;59.24;100810.84;10335480;28;20105;-75
2022/08/06 03:36:15;;;;;;;6.22;2.22;;;;;;;13.15;59.10;100813.75;10339045;28;20050;-75
2022/08/06 03:41:18;;;;;;;5.57;2.00;;;;;;;13.10;59.34;100821.88;10336385;28;20128;-75
2022/08/06 03:46:27;;;;;;;6.20;1.92;;;;;;;13.10;59.37;100821.88;10336757;28;20921;-75
2022/08/06 03:51:31;;;;;;;6.28;2.20;;;;;;;13.10;59.57;100826.28;10337173;28;20401;-75
2022/08/06 03:56:56;;;;;;;4.88;2.10;;;;;;;13.12;58.96;100822.63;10338983;28;20108;-75
2022/08/06 04:02:01;;;;;;;6.38;2.10;;;;;;;13.12;59.14;100819.16;10337296;28;20054;-75
2022/08/06 04:07:04;;;;;;;4.72;2.03;;;;;;;12.96;59.51;100830.50;10339969;28;20064;-75
2022/08/06 04:12:08;;;;;;;2.83;1.80;;;;;;;13.01;59.63;100830.25;10335704;28;20061;-76
2022/08/06 04:17:31;;;;;;;6.82;2.15;;;;;;;13.08;59.37;100825.50;10338015;28;20042;-76
2022/08/06 04:22:36;;;;;;;4.22;1.95;;;;;;;13.11;59.19;100838.50;10345702;28;20090;-75
2022/08/06 04:28:06;;;;;;;4.78;2.28;;;;;;;13.10;59.40;100847.28;10346732;28;20133;-76
2022/08/06 04:33:13;;;;;;;3.13;2.03;;;;;;;13.27;59.34;100839.31;10348743;28;20143;-76
2022/08/06 04:38:20;;;;;;;4.18;2.00;;;;;;;13.34;58.77;100845.91;10357900;28;20041;-76
2022/08/06 04:43:32;;;;;;;8.00;2.25;;;;;;;13.74;58.25;100847.97;10347517;28;20060;-75
2022/08/06 04:48:53;;;;;;;4.25;2.00;;;;;;;14.11;57.04;100858.00;10343207;28;20745;-76
2022/08/06 04:54:04;;;;;;;5.32;2.10;;;;;;;15.07;55.50;100853.78;10332119;28;20056;-75
2022/08/06 04:59:08;;;;;;;4.00;1.60;;;;;;;17.20;50.56;100852.31;10336881;28;20054;-76
2022/08/06 05:04:10;;;;;;;3.80;1.60;;;;;;;17.84;49.19;100851.09;10353661;28;20245;-78
2022/08/06 05:09:23;;;;;;;4.78;1.80;;;;;;;18.62;46.36;100855.59;10351707;28;20168;-78
2022/08/06 05:15:06;;;;;;;3.75;1.60;;;;;;;19.27;44.05;100862.75;10349049;28;20058;-78
2022/08/06 05:20:15;;;;;;;6.43;1.60;;;;;;;20.56;41.49;100858.84;10333532;28;20463;-79
2022/08/06 05:25:32;;;;;;;4.85;1.67;;;;;;;18.28;45.13;100871.56;10334357;28;20797;-78
2022/08/06 05:30:45;;;;;;;5.03;1.58;;;;;;;17.22;47.80;100874.19;10331697;28;20487;-79
2022/08/06 05:35:47;;;;;;;5.30;1.80;;;;;;;16.96;48.52;100875.22;10350484;28;20051;-79
2022/08/06 05:41:10;;;;;;;3.05;1.52;;;;;;;16.58;49.52;100885.00;10335858;28;20054;-78
2022/08/06 05:46:19;;;;;;;5.18;1.70;;;;;;;16.45;49.80;100884.16;10332718;28;20431;-79
2022/08/06 05:51:38;;;;;;;4.20;1.70;;;;;;;16.11;50.69;100893.50;10333592;28;20189;-78
2022/08/06 05:56:50;;;;;;;3.40;1.60;;;;;;;15.97;51.03;100899.72;10348014;28;20057;-79
2022/08/06 06:01:55;;;;;;;4.22;2.20;;;;;;;15.89;50.98;100896.75;10333798;28;20053;-78
2022/08/06 06:06:57;;;;;;;3.70;1.50;;;;;;;16.00;50.81;100896.84;10332908;28;20116;-77
2022/08/06 06:12:04;;;;;;;4.75;1.60;;;;;;;16.10;50.84;100908.50;10335675;28;20056;-78
2022/08/06 06:17:34;;;;;;;3.83;1.60;;;;;;;16.19;50.91;100905.25;10332921;28;20049;-78
2022/08/06 06:22:43;;;;;;;2.95;1.30;;;;;;;16.40;50.68;100908.22;10345168;28;20101;-78
2022/08/06 06:28:00;;;;;;;3.35;1.48;;;;;;;16.51;49.95;100912.81;10350680;28;20050;-78
2022/08/06 06:33:15;;;;;;;4.68;1.52;;;;;;;16.67;50.01;100905.50;10350628;28;20058;-78
2022/08/06 06:38:49;;;;;;;4.15;1.50;;;;;;;16.64;50.25;100903.06;10342031;28;20046;-78
2022/08/06 06:44:02;;;;;;;3.55;1.60;;;;;;;16.84;49.61;100913.09;10342780;28;20504;-78
2022/08/06 06:49:27;;;;;;;7.40;1.70;;;;;;;17.01;48.59;100907.47;10362903;28;20056;-79
2022/08/06 06:55:06;;;;;;;5.40;1.33;;;;;;;17.27;48.10;100906.44;10359527;28;20136;-78
2022/08/06 07:00:20;;;;;;;2.22;1.23;;;;;;;17.54;47.48;100911.56;10352481;28;20042;-78
2022/08/06 07:05:44;;;;;;;7.07;1.40;;;;;;;17.78;46.42;100915.06;10361151;28;20141;-78
2022/08/06 07:11:06;;;;;;;3.67;1.30;;;;;;;18.13;45.76;100917.72;10359502;28;20485;-78
2022/08/06 07:16:12;;;;;;;4.15;1.30;;;;;;;18.09;45.45;100910.97;10344745;28;20054;-78
2022/08/06 07:21:35;;;;;;;3.40;1.30;;;;;;;18.11;45.24;100917.84;10340939;28;20131;-78
2022/08/06 07:26:41;;;;;;;3.50;1.13;;;;;;;18.17;44.83;100924.47;10341949;28;20057;-78
2022/08/06 07:31:55;;;;;;;3.58;1.20;;;;;;;18.19;44.05;100925.19;10342481;28;20081;-78
2022/08/06 07:36:59;;;;;;;6.28;1.42;;;;;;;18.12;44.20;100932.75;10339616;28;20487;-78
2022/08/06 07:42:07;;;;;;;5.95;1.38;;;;;;;19.22;42.36;100926.78;10341512;28;20050;-78
2022/08/06 07:47:19;;;;;;;3.67;1.50;;;;;;;20.91;39.40;100916.97;10354179;28;20499;-79
2022/08/06 07:52:43;;;;;;;2.38;1.20;;;;;;;22.09;37.30;100917.78;10337825;28;20061;-79
2022/08/06 07:57:44;;;;;;;5.32;1.58;;;;;;;22.33;35.50;100926.16;10337134;28;20136;-81
2022/08/06 08:08:41;;;;;;;3.38;1.20;;;;;;;23.27;34.20;100918.00;10337969;28;20046;-80
2022/08/06 08:13:43;;;;;;;3.22;1.30;;;;;;;23.70;33.37;100916.47;10337611;28;20132;-80
2022/08/06 08:18:45;;;;;;;3.85;1.33;;;;;;;23.85;32.35;100905.13;10337319;28;20068;-80
2022/08/06 08:23:49;;;;;;;2.95;1.20;;;;;;;23.89;31.63;100905.66;10352395;28;20054;-80
2022/08/06 08:28:56;;;;;;;3.90;1.20;;;;;;;23.90;31.56;100894.81;10336305;28;20057;-81
2022/08/06 08:33:58;;;;;;;3.72;1.30;;;;;;;23.80;31.14;100899.38;10349705;28;20058;-80
2022/08/06 08:39:01;;;;;;;7.03;1.30;;;;;;;23.95;30.94;100897.88;10338782;28;20061;-81
2022/08/06 08:44:08;;;;;;;3.13;1.20;;;;;;;23.99;30.57;100899.22;10335163;28;20147;-80
2022/08/06 08:49:20;;;;;;;5.18;1.40;;;;;;;24.53;30.22;100898.13;10352609;28;20054;-81
2022/08/06 08:54:26;;;;;;;3.50;1.17;;;;;;;25.15;29.37;100890.78;10334957;28;20168;-80
2022/08/06 08:59:28;;;;;;;5.50;1.30;;;;;;;25.43;28.98;100886.88;10351603;28;20332;-82
2022/08/06 09:04:50;;;;;;;3.05;1.27;;;;;;;25.63;27.33;100882.91;10338616;28;20066;-80
2022/08/06 09:09:53;;;;;;;3.42;1.20;;;;;;;26.37;26.91;100883.59;10346326;28;20507;-80
2022/08/06 09:15:04;;;;;;;3.97;1.20;;;;;;;26.64;26.34;100890.44;10345825;28;20118;-81
2022/08/06 09:20:07;;;;;;;6.07;1.10;;;;;;;25.94;26.04;100891.16;10342479;28;20101;-80
2022/08/06 09:25:39;;;;;;;5.80;1.20;;;;;;;25.75;24.58;100890.44;10341314;28;20092;-80
2022/08/06 09:30:58;;;;;;;2.92;0.98;;;;;;;24.98;26.67;100882.69;10337107;28;20052;-83
2022/08/06 09:36:08;;;;;;;3.33;1.10;;;;;;;24.02;27.90;100893.56;10339553;28;20523;-80
2022/08/06 09:41:17;;;;;;;2.80;0.98;;;;;;;23.90;27.50;100899.31;10318723;28;20055;-80
2022/08/06 09:46:44;;;;;;;3.30;1.00;;;;;;;24.61;26.70;100900.84;10321308;28;20436;-81
2022/08/06 09:51:49;;;;;;;2.58;1.00;;;;;;;23.41;28.55;100906.03;10335104;28;20342;-84
2022/08/06 09:56:57;;;;;;;3.75;1.40;;;;;;;24.50;27.51;100892.28;10331440;28;20082;-82
2022/08/06 10:02:13;;;;;;;5.30;1.52;;;;;;;24.81;26.46;100888.13;10327068;28;20056;-81
2022/08/06 10:07:30;;;;;;;3.42;1.05;;;;;;;24.05;25.53;100901.28;10322752;28;20046;-83
2022/08/06 10:12:41;;;;;;;3.38;1.20;;;;;;;24.14;26.40;100887.00;10346676;28;20054;-82
2022/08/06 10:17:45;;;;;;;2.92;1.10;;;;;;;23.88;26.10;100877.25;10329683;28;20081;-82
2022/08/06 10:23:00;;;;;;;3.45;1.00;;;;;;;23.91;26.34;100877.78;10326359;28;20295;-85
2022/08/06 10:28:02;;;;;;;;;;;;;;;23.44;24.25;100887.88;10338926;28;21003;-85
2022/08/06 10:33:12;;;;;;;2.65;1.00;;;;;;;23.78;25.32;100882.66;10318186;28;20005;-86
2022/08/06 10:38:26;;;;;;;3.33;0.90;;;;;;;24.33;25.44;100874.47;10322298;28;20062;-85
2022/08/06 10:43:37;;;;;;;5.47;1.13;;;;;;;24.39;25.19;100873.84;10330459;28;20050;-85
2022/08/06 10:48:41;;;;;;;4.47;1.00;;;;;;;24.24;26.13;100866.41;10336188;28;20045;-86
2022/08/06 10:54:03;;;;;;;1.70;1.00;;;;;;;24.00;25.17;100866.16;10333936;28;20526;-85
2022/08/06 10:59:23;;;;;;;2.97;1.00;;;;;;;22.78;26.23;100866.88;10325283;28;20049;-85
2022/08/06 11:04:59;;;;;;;3.35;1.15;;;;;;;22.67;25.93;100866.03;10334819;28;20059;-85
2022/08/06 11:10:08;;;;;;;2.78;0.93;;;;;;;22.78;26.71;100854.34;10338407;28;20055;-85
2022/08/06 11:15:11;;;;;;;3.90;1.10;;;;;;;23.05;26.43;100845.50;10349332;28;20058;-85
2022/08/06 11:20:31;;;;;;;3.67;1.20;;;;;;;22.41;26.49;100858.84;10347432;28;20132;-85
2022/08/06 11:25:53;;;;;;;3.22;0.90;;;;;;;22.50;26.86;100842.78;10334050;28;20054;-85
2022/08/06 11:30:57;;;;;;;2.28;0.90;;;;;;;22.52;27.10;100855.97;10334067;28;20113;-85
2022/08/06 11:36:09;;;;;;;4.03;0.77;;;;;;;22.89;26.23;100840.81;10354678;28;20050;-85
2022/08/06 11:41:24;;;;;;;2.03;0.98;;;;;;;22.78;26.06;100840.19;10339702;28;20514;-85
2022/08/06 11:46:47;;;;;;;2.42;1.13;;;;;;;22.67;26.61;100839.38;10337028;28;20144;-85
2022/08/06 11:51:58;;;;;;;3.35;1.15;;;;;;;22.92;26.41;100819.22;10330110;28;20469;-85
2022/08/06 11:57:07;;;;;;;3.40;1.30;;;;;;;23.30;25.94;100826.94;10353354;28;20061;-85
2022/08/06 12:02:39;;;;;;;3.10;1.00;;;;;;;23.15;25.35;100827.59;10350636;28;20096;-85
2022/08/06 12:08:06;;;;;;;2.05;0.85;;;;;;;22.80;26.88;100820.38;10356841;28;20061;-85
2022/08/06 12:13:39;;;;;;;1.35;0.90;;;;;;;22.97;25.40;100829.41;10325534;28;20062;-85
2022/08/06 12:18:59;;;;;;;1.02;0.80;;;;;;;23.49;25.71;100799.31;10338740;28;20070;-85
2022/08/06 12:24:23;;;;;;;2.25;0.70;;;;;;;23.75;24.59;100800.19;10347975;28;20516;-84
2022/08/06 12:29:29;;;;;;;2.63;0.90;;;;;;;23.98;24.48;100797.84;10345029;28;20057;-85
2022/08/06 12:34:42;;;;;;;2.03;0.80;;;;;;;24.09;25.09;100787.75;10334649;28;20566;-86
2022/08/06 12:45:22;;;;;;;2.50;0.90;;;;;;;24.02;24.89;100780.50;10333190;28;20143;-85
2022/08/06 12:50:44;;;;;;;1.75;0.80;;;;;;;24.15;24.79;100775.59;10336178;28;20042;-85
2022/08/06 12:55:50;;;;;;;2.15;0.90;;;;;;;24.41;23.89;100764.88;10339383;28;20507;-86
2022/08/06 13:00:59;;;;;;;2.00;0.80;;;;;;;24.31;24.29;100764.97;10327376;28;20050;-85
2022/08/06 13:06:05;;;;;;;3.10;0.73;;;;;;;24.66;23.44;100763.97;10344373;28;20058;-86
2022/08/06 13:11:07;;;;;;;2.80;0.80;;;;;;;24.50;23.54;100753.22;10336282;28;20053;-85
2022/08/06 13:16:12;;;;;;;3.58;0.90;;;;;;;24.07;23.92;100749.66;10346846;28;20090;-85
2022/08/06 13:21:25;;;;;;;1.95;0.80;;;;;;;23.82;23.51;100765.69;10348501;28;20058;-86
2022/08/06 13:26:50;;;;;;;2.80;1.00;;;;;;;23.99;24.06;100757.59;10332841;28;20112;-86
2022/08/06 13:32:08;;;;;;;4.40;0.95;;;;;;;24.14;23.78;100741.84;10339809;28;20053;-85
2022/08/06 13:37:50;;;;;;;2.22;0.90;;;;;;;24.33;23.36;100728.22;10345703;28;20132;-86
2022/08/06 13:43:13;;;;;;;1.52;0.73;;;;;;;24.35;23.30;100739.59;10352703;28;20202;-85
2022/08/06 13:48:35;;;;;;;1.83;0.95;;;;;;;24.01;23.21;100731.56;10331354;28;20125;-85
2022/08/06 13:53:38;;;;;;;1.65;0.70;;;;;;;23.97;23.09;100735.56;10337539;28;20053;-86
2022/08/06 13:58:49;;;;;;;1.08;0.60;;;;;;;23.82;22.75;100730.94;10335574;28;20058;-86
2022/08/06 14:03:52;;;;;;;4.25;0.90;;;;;;;24.06;23.30;100729.25;10336011;28;20073;-85
2022/08/06 14:08:55;;;;;;;1.90;0.80;;;;;;;24.60;23.16;100721.81;10334200;28;20052;-86
2022/08/06 14:14:00;;;;;;;1.90;0.95;;;;;;;24.67;23.30;100728.19;10336824;28;20615;-86
2022/08/06 14:19:01;;;;;;;2.97;1.02;;;;;;;24.96;22.70;100723.25;10333356;28;20119;-86
2022/08/06 14:24:23;;;;;;;2.42;0.95;;;;;;;25.20;22.24;100720.63;10349069;28;20475;-86
2022/08/06 14:29:26;;;;;;;1.70;0.90;;;;;;;25.18;22.02;100721.81;10342565;28;20503;-85
2022/08/06 14:34:51;;;;;;;2.40;0.93;;;;;;;24.58;22.58;100719.31;10352244;28;20133;-86
2022/08/06 14:39:53;;;;;;;1.73;0.90;;;;;;;24.37;22.96;100720.75;10332006;28;20101;-85
2022/08/06 14:45:05;;;;;;;2.83;0.93;;;;;;;24.08;23.48;100729.13;10326889;28;20068;-86
2022/08/06 14:50:08;;;;;;;2.17;1.00;;;;;;;24.01;23.27;100707.50;10350843;28;20090;-85
2022/08/06 14:55:10;;;;;;;2.42;1.35;;;;;;;24.09;23.16;100709.41;10339982;28;20050;-86
2022/08/06 15:00:12;;;;;;;3.35;0.93;;;;;;;23.97;22.74;100705.31;10349724;28;20060;-86
2022/08/06 15:05:22;;;;;;;2.78;1.00;;;;;;;24.09;22.69;100691.56;10341951;28;20527;-86
2022/08/06 15:10:44;;;;;;;1.30;0.88;;;;;;;24.13;23.00;100686.72;10346632;28;20132;-86
2022/08/06 15:15:45;;;;;;;3.47;0.98;;;;;;;24.87;22.80;100668.91;10344953;28;20511;-86
2022/08/06 15:20:51;;;;;;;2.05;0.88;;;;;;;25.21;22.31;100668.75;10360449;28;20050;-86
2022/08/06 15:25:52;;;;;;;1.20;0.80;;;;;;;25.31;22.22;100663.22;10345098;28;20061;-85
2022/08/06 15:31:14;;;;;;;2.03;1.00;;;;;;;25.24;22.03;100665.75;10330624;28;20046;-86
2022/08/06 15:36:17;;;;;;;2.10;0.75;;;;;;;24.97;22.46;100666.91;10354661;28;20641;-86
2022/08/06 15:41:22;;;;;;;1.70;0.90;;;;;;;24.86;22.65;100663.72;10336012;28;20412;-86
2022/08/06 15:46:24;;;;;;;1.98;0.90;;;;;;;24.83;22.58;100656.88;10349610;28;20527;-86
2022/08/06 15:51:29;;;;;;;1.70;0.90;;;;;;;24.71;22.69;100650.19;10347456;28;20137;-86
2022/08/06 15:56:32;;;;;;;4.00;1.10;;;;;;;24.93;22.70;100660.22;10341226;28;20560;-86
2022/08/06 16:01:52;;;;;;;6.35;0.90;;;;;;;24.27;23.35;100652.19;10336187;28;20488;-86
2022/08/06 16:07:07;;;;;;;5.40;1.10;;;;;;;23.96;23.43;100652.88;10340149;28;20112;-86
2022/08/06 16:12:09;;;;;;;2.58;1.00;;;;;;;24.04;23.43;100651.06;10354150;28;20069;-86
2022/08/06 16:17:11;;;;;;;5.00;1.00;;;;;;;23.72;24.06;100656.25;10342905;28;20062;-86
2022/08/06 16:22:33;;;;;;;4.10;1.10;;;;;;;23.67;23.63;100663.91;10336760;28;20057;-86
2022/08/06 16:27:34;;;;;;;1.88;0.95;;;;;;;23.43;24.07;100653.09;10338986;28;20507;-86
2022/08/06 16:32:40;;;;;;;2.70;0.82;;;;;;;23.74;23.45;100646.25;10346754;28;20456;-86
2022/08/06 16:37:45;;;;;;;3.35;1.02;;;;;;;23.94;23.54;100650.34;10340410;28;20046;-86
2022/08/06 16:42:55;;;;;;;1.63;0.90;;;;;;;23.80;23.29;100650.94;10335724;28;20064;-86
2022/08/06 16:47:57;;;;;;;5.35;1.00;;;;;;;23.43;23.93;100653.09;10333475;28;20503;-86
2022/08/06 16:53:18;;;;;;;3.15;0.70;;;;;;;23.32;24.21;100658.63;10337906;28;20050;-85
2022/08/06 16:58:40;;;;;;;2.47;0.95;;;;;;;23.37;23.93;100653.69;10332792;28;20425;-86
2022/08/06 17:03:50;;;;;;;2.15;0.93;;;;;;;23.43;24.13;100653.09;10340439;28;20058;-86
2022/08/06 17:09:12;;;;;;;3.65;1.10;;;;;;;23.18;24.14;100652.03;10331498;28;20579;-86
2022/08/06 17:14:20;;;;;;;3.85;0.82;;;;;;;23.01;24.91;100652.03;10332512;28;20076;-86
2022/08/06 17:19:22;;;;;;;3.53;0.90;;;;;;;22.70;24.43;100652.38;10337848;28;20084;-86
2022/08/06 17:24:28;;;;;;;3.85;0.88;;;;;;;22.59;25.19;100655.28;10335911;28;20463;-86
2022/08/06 17:29:38;;;;;;;2.80;0.80;;;;;;;22.65;25.22;100654.69;10337105;28;20485;-85
2022/08/06 17:34:49;;;;;;;1.67;0.80;;;;;;;22.59;25.01;100649.13;10333955;28;20089;-85
2022/08/06 17:39:51;;;;;;;1.92;0.70;;;;;;;22.79;24.76;100653.34;10335747;28;20050;-86
2022/08/06 17:44:52;;;;;;;4.15;1.05;;;;;;;22.79;25.23;100655.16;10343123;28;20133;-86
2022/08/06 17:49:55;;;;;;;2.97;1.00;;;;;;;22.79;25.00;100656.00;10338246;28;20077;-85
2022/08/06 17:54:57;;;;;;;2.78;0.80;;;;;;;22.72;24.85;100657.56;10341639;28;20049;-86
2022/08/06 18:00:00;;;;;;;4.30;0.95;;;;;;;22.53;24.87;100665.72;10330848;28;20057;-86
2022/08/06 18:05:03;;;;;;;3.53;0.95;;;;;;;22.36;25.43;100658.50;10325104;28;20070;-86
2022/08/06 18:10:26;;;;;;;1.25;0.80;;;;;;;22.31;25.79;100674.94;10336260;28;20133;-85
2022/08/06 18:15:33;;;;;;;2.92;1.00;;;;;;;21.96;25.82;100676.66;10323641;28;20499;-86
2022/08/06 18:20:47;;;;;;;3.25;0.90;;;;;;;21.74;26.10;100683.19;10344810;28;20050;-85
2022/08/06 18:25:50;;;;;;;3.45;1.00;;;;;;;21.78;26.84;100684.56;10332736;28;20050;-85
2022/08/06 18:30:58;;;;;;;1.37;0.80;;;;;;;21.72;26.29;100685.97;10340696;28;20053;-85
2022/08/06 18:36:01;;;;;;;2.05;1.20;;;;;;;21.68;26.40;100692.56;10357100;28;20058;-86
2022/08/06 18:41:07;;;;;;;3.70;1.08;;;;;;;21.50;26.97;100701.41;10344645;28;20050;-86
2022/08/06 18:46:18;;;;;;;2.15;1.00;;;;;;;21.41;27.65;100702.28;10341029;28;20499;-86
2022/08/06 18:51:40;;;;;;;1.60;0.98;;;;;;;21.28;28.56;100705.22;10336717;28;20129;-85
2022/08/06 18:56:42;;;;;;;2.72;0.90;;;;;;;21.14;28.57;100705.63;10356322;28;20159;-86
2022/08/06 19:01:49;;;;;;;1.35;0.90;;;;;;;20.81;28.95;100700.72;10342416;28;20512;-85
2022/08/06 19:06:51;;;;;;;1.42;0.82;;;;;;;20.67;28.49;100707.28;10346921;28;20139;-86
2022/08/06 19:11:53;;;;;;;1.70;0.80;;;;;;;20.44;28.96;100711.09;10334410;28;20504;-86
2022/08/06 19:16:56;;;;;;;2.90;1.05;;;;;;;20.38;29.84;100716.97;10333643;28;20073;-86
2022/08/06 19:21:59;;;;;;;2.83;1.10;;;;;;;20.21;30.31;100720.28;10337556;28;20510;-85
2022/08/06 19:27:01;;;;;;;4.97;1.23;;;;;;;19.87;30.14;100727.66;10343112;28;20057;-85
2022/08/06 19:32:04;;;;;;;3.22;1.10;;;;;;;19.73;30.63;100732.41;10338028;28;20054;-86
2022/08/06 19:37:09;;;;;;;1.85;0.80;;;;;;;19.73;31.17;100735.06;10332665;28;20104;-86
2022/08/06 19:42:31;;;;;;;2.53;1.08;;;;;;;19.68;31.59;100738.13;10337235;28;20456;-85
2022/08/06 19:47:34;;;;;;;1.52;0.90;;;;;;;19.48;31.65;100745.09;10333520;28;20522;-86
2022/08/06 19:52:39;;;;;;;3.63;0.90;;;;;;;19.38;31.71;100749.50;10337137;28;20085;-86
2022/08/06 19:57:47;;;;;;;1.33;0.90;;;;;;;19.32;32.36;100757.97;10338233;28;20527;-86
2022/08/06 20:02:50;;;;;;;3.40;1.00;;;;;;;19.22;32.53;100761.50;10353235;28;20062;-85
2022/08/06 20:07:55;;;;;;;2.55;0.90;;;;;;;19.04;32.99;100766.50;10332266;28;20054;-85
2022/08/06 20:13:18;;;;;;;2.05;0.90;;;;;;;18.96;33.32;100766.28;10351096;28;20141;-86
2022/08/06 20:18:21;;;;;;;4.57;1.10;;;;;;;18.87;33.15;100780.25;10355561;28;20103;-85
2022/08/06 20:23:26;;;;;;;3.22;1.00;;;;;;;18.68;33.41;100774.78;10336875;28;20058;-85
2022/08/06 20:28:30;;;;;;;2.22;0.90;;;;;;;18.57;34.02;100775.63;10338737;28;20137;-85
2022/08/06 20:33:52;;;;;;;4.30;1.00;;;;;;;18.45;34.72;100771.28;10326765;28;20157;-86
2022/08/06 20:39:00;;;;;;;2.35;1.10;;;;;;;18.29;34.80;100783.22;10343106;28;20451;-85
2022/08/06 20:44:04;;;;;;;2.08;0.93;;;;;;;18.18;35.24;100776.06;10334113;28;20065;-86
2022/08/06 20:49:09;;;;;;;4.20;1.13;;;;;;;18.08;35.37;100782.19;10337415;28;20135;-85
2022/08/06 20:54:15;;;;;;;2.40;1.10;;;;;;;17.96;35.65;100781.34;10353159;28;20507;-85
2022/08/06 20:59:19;;;;;;;1.60;0.98;;;;;;;17.84;36.42;100780.47;10357133;28;20050;-85
2022/08/06 21:04:20;;;;;;;3.00;1.30;;;;;;;17.77;37.04;100779.25;10335170;28;20090;-85
2022/08/06 21:09:42;;;;;;;3.22;1.30;;;;;;;17.65;37.09;100785.47;10343784;28;20535;-85
2022/08/06 21:14:46;;;;;;;2.78;1.10;;;;;;;17.52;37.31;100778.59;10334426;28;20058;-85
2022/08/06 21:19:48;;;;;;;3.00;1.10;;;;;;;17.42;37.71;100782.88;10332781;28;20049;-85
2022/08/06 21:25:10;;;;;;;1.85;0.95;;;;;;;17.26;37.79;100792.88;10338015;28;20120;-85
2022/08/06 21:30:21;;;;;;;5.70;1.30;;;;;;;17.17;37.90;100791.75;10339742;28;20610;-85
2022/08/06 21:35:30;;;;;;;2.20;1.10;;;;;;;17.09;38.29;100785.34;10340909;28;20054;-85
2022/08/06 21:40:34;;;;;;;1.92;1.10;;;;;;;17.04;38.81;100789.16;10339995;28;20046;-85
2022/08/06 21:45:36;;;;;;;3.20;1.30;;;;;;;16.92;38.87;100784.75;10337074;28;20055;-85
2022/08/06 21:50:58;;;;;;;3.95;1.20;;;;;;;16.84;39.46;100787.13;10352326;28;20523;-85
2022/08/06 21:56:01;;;;;;;3.55;1.30;;;;;;;16.65;39.91;100789.38;10344863;28;20325;-85
2022/08/06 22:01:25;;;;;;;2.58;1.20;;;;;;;16.21;40.84;100789.84;10334576;28;20857;-85
2022/08/06 22:06:46;;;;;;;2.65;1.25;;;;;;;16.00;41.23;100787.81;10340544;28;20065;-85
2022/08/06 22:11:54;;;;;;;3.40;1.20;;;;;;;15.99;41.78;100791.44;10341609;28;20089;-85
2022/08/06 22:17:17;;;;;;;3.22;1.30;;;;;;;15.78;41.98;100799.00;10328515;28;20322;-85
2022/08/06 22:22:39;;;;;;;3.72;1.40;;;;;;;15.62;42.61;100803.63;10326520;28;20637;-85
2022/08/06 22:27:41;;;;;;;5.22;1.38;;;;;;;15.56;42.93;100803.19;10337250;28;20277;-85
2022/08/06 22:32:55;;;;;;;3.95;1.40;;;;;;;15.48;43.58;100805.44;10347195;28;20153;-84
2022/08/06 22:38:03;;;;;;;4.50;1.40;;;;;;;15.41;43.82;100800.59;10329486;28;20053;-85
2022/08/06 22:43:22;;;;;;;3.00;1.40;;;;;;;15.12;44.16;100795.53;10330610;28;20136;-84
2022/08/06 22:48:44;;;;;;;2.20;1.33;;;;;;;14.99;44.68;100802.53;10337640;28;20144;-84
2022/08/06 22:53:48;;;;;;;3.72;1.50;;;;;;;14.92;45.00;100809.97;10328381;28;20141;-85
2022/08/06 22:59:09;;;;;;;2.53;1.40;;;;;;;14.90;45.56;100813.66;10324157;28;20097;-85
2022/08/06 23:04:32;;;;;;;2.35;1.48;;;;;;;14.86;45.73;100813.00;10331623;28;20089;-84
2022/08/06 23:09:35;;;;;;;2.13;1.40;;;;;;;14.79;46.26;100814.34;10328406;28;20134;-85
2022/08/06 23:14:37;;;;;;;2.67;1.25;;;;;;;14.66;46.55;100810.78;10347361;28;20516;-85
2022/08/06 23:19:42;;;;;;;3.17;1.52;;;;;;;14.61;46.85;100804.13;10342349;28;20460;-85
2022/08/06 23:24:58;;;;;;;5.25;1.65;;;;;;;14.59;46.94;100799.78;10341571;28;20064;-84
2022/08/06 23:30:20;;;;;;;3.38;1.50;;;;;;;14.44;47.69;100805.13;10334942;28;20165;-84
2022/08/06 23:35:22;;;;;;;4.07;1.50;;;;;;;14.32;48.02;100801.47;10342833;28;20701;-84
2022/08/06 23:40:38;;;;;;;2.20;1.30;;;;;;;14.29;48.12;100803.44;10350835;28;20500;-84
2022/08/06 23:45:42;;;;;;;3.55;1.58;;;;;;;14.30;48.08;100797.25;10343229;28;20052;-84
2022/08/06 23:50:48;;;;;;;3.10;1.48;;;;;;;14.21;48.34;100803.06;10338834;28;20093;-84
2022/08/06 23:55:54;;;;;;;2.78;1.30;;;;;;;14.09;48.99;100794.13;10341244;28;20700;-84
